createdAt,value
2019-03-28T00:01:38.390Z,16.90
2019-03-28T00:04:06.836Z,16.05
2019-03-28T00:06:35.278Z,15.75
2019-03-28T00:09:07.703Z,16.77
2019-03-28T00:11:35.778Z,14.93
2019-03-28T00:14:04.293Z,15.88
2019-03-28T00:16:32.787Z,15.15
2019-03-28T00:19:01.294Z,16.20
2019-03-28T00:21:29.735Z,15.63
2019-03-28T00:23:59.836Z,16.37
2019-03-28T00:26:30.471Z,15.73
2019-03-28T00:28:58.464Z,16.15
2019-03-28T00:31:26.948Z,16.30
2019-03-28T00:33:55.391Z,16.25
2019-03-28T00:36:23.835Z,15.75
2019-03-28T00:38:52.312Z,16.37
2019-03-28T00:41:20.758Z,14.83
2019-03-28T00:43:49.192Z,14.65
2019-03-28T00:46:18.055Z,14.25
2019-03-28T00:48:46.505Z,15.23
2019-03-28T00:51:15.080Z,14.10
2019-03-28T00:53:43.567Z,14.40
2019-03-28T00:56:12.028Z,14.60
2019-03-28T00:58:40.479Z,14.58
2019-03-28T01:01:08.957Z,14.90
2019-03-28T01:03:37.551Z,14.93
2019-03-28T01:06:05.991Z,14.85
2019-03-28T01:08:34.484Z,15.38
2019-03-28T01:11:02.924Z,15.53
2019-03-28T01:13:31.364Z,14.63
2019-03-28T01:15:59.840Z,15.83
2019-03-28T01:18:28.300Z,15.95
2019-03-28T01:20:56.750Z,15.00
2019-03-28T01:23:25.216Z,15.60
2019-03-28T01:25:53.730Z,15.00
2019-03-28T01:28:22.170Z,16.35
2019-03-28T01:30:50.651Z,16.32
2019-03-28T01:33:19.100Z,15.43
2019-03-28T01:35:48.231Z,16.20
2019-03-28T01:38:16.783Z,15.98
2019-03-28T01:40:45.607Z,15.50
2019-03-28T01:43:14.184Z,15.00
2019-03-28T01:45:42.944Z,16.30
2019-03-28T01:48:11.393Z,15.48
2019-03-28T01:50:39.992Z,15.38
2019-03-28T01:53:08.533Z,14.78
2019-03-28T01:55:36.975Z,15.90
2019-03-28T01:58:05.448Z,14.35
2019-03-28T02:00:34.148Z,15.08
2019-03-28T02:03:02.599Z,14.95
2019-03-28T02:05:31.051Z,15.38
2019-03-28T02:08:02.509Z,15.38
2019-03-28T02:10:29.776Z,15.55
2019-03-28T02:12:58.212Z,15.78
2019-03-28T02:15:26.776Z,15.48
2019-03-28T02:17:55.296Z,15.95
2019-03-28T02:20:23.804Z,16.20
2019-03-28T02:22:52.289Z,15.90
2019-03-28T02:25:20.736Z,17.02
2019-03-28T02:27:49.255Z,16.82
2019-03-28T02:30:38.582Z,16.67
2019-03-28T02:33:07.026Z,15.68
2019-03-28T02:35:35.468Z,17.10
2019-03-28T02:38:04.005Z,17.10
2019-03-28T02:40:32.452Z,17.57
2019-03-28T02:43:00.884Z,18.00
2019-03-28T02:45:30.007Z,17.50
2019-03-28T02:47:58.891Z,17.02
2019-03-28T02:50:27.334Z,16.55
2019-03-28T02:52:55.803Z,16.37
2019-03-28T02:55:24.316Z,15.90
2019-03-28T02:57:52.837Z,16.80
2019-03-28T03:00:21.452Z,15.88
2019-03-28T03:02:49.901Z,16.27
2019-03-28T03:05:18.425Z,16.60
2019-03-28T03:07:46.891Z,15.43
2019-03-28T03:10:15.548Z,16.00
2019-03-28T03:12:44.007Z,16.40
2019-03-28T03:15:12.815Z,15.68
2019-03-28T03:17:41.745Z,16.02
2019-03-28T03:20:10.896Z,16.73
2019-03-28T03:22:39.444Z,17.12
2019-03-28T03:25:08.324Z,18.02
2019-03-28T03:27:37.198Z,17.80
2019-03-28T03:30:08.287Z,15.30
2019-03-28T03:32:36.797Z,15.80
2019-03-28T03:35:05.776Z,15.70
2019-03-28T03:37:34.309Z,15.70
2019-03-28T03:40:03.135Z,14.70
2019-03-28T03:42:31.587Z,13.83
2019-03-28T03:45:00.067Z,14.15
2019-03-28T03:47:28.589Z,14.18
2019-03-28T03:49:57.061Z,14.53
2019-03-28T03:52:25.601Z,13.62
2019-03-28T03:54:54.046Z,14.30
2019-03-28T03:57:22.495Z,14.33
2019-03-28T03:59:50.969Z,13.85
2019-03-28T04:02:19.488Z,13.75
2019-03-28T04:04:48.028Z,13.55
2019-03-28T04:07:16.577Z,12.70
2019-03-28T04:09:45.021Z,13.10
2019-03-28T04:12:13.471Z,13.53
2019-03-28T04:14:42.033Z,12.95
2019-03-28T04:17:10.550Z,12.93
2019-03-28T04:19:38.986Z,12.95
2019-03-28T04:22:07.471Z,12.47
2019-03-28T04:24:35.934Z,13.05
2019-03-28T04:27:04.445Z,13.08
2019-03-28T04:29:32.922Z,13.35
2019-03-28T04:32:01.364Z,12.65
2019-03-28T04:34:29.806Z,11.43
2019-03-28T04:36:58.281Z,11.65
2019-03-28T04:39:26.725Z,11.68
2019-03-28T04:41:55.181Z,11.70
2019-03-28T04:44:23.643Z,12.03
2019-03-28T04:46:52.086Z,11.15
2019-03-28T04:49:20.529Z,12.00
2019-03-28T04:51:49.004Z,12.40
2019-03-28T04:54:17.459Z,12.15
2019-03-28T04:56:45.907Z,11.90
2019-03-28T04:59:14.933Z,11.55
2019-03-28T05:01:43.885Z,11.75
2019-03-28T05:04:12.340Z,11.57
2019-03-28T05:06:40.822Z,12.18
2019-03-28T05:09:09.266Z,12.13
2019-03-28T05:11:37.708Z,11.63
2019-03-28T05:14:06.187Z,12.15
2019-03-28T05:16:34.638Z,13.45
2019-03-28T05:19:03.075Z,12.05
2019-03-28T05:21:31.622Z,11.90
2019-03-28T05:24:00.130Z,11.73
2019-03-28T05:26:28.599Z,12.30
2019-03-28T05:28:58.137Z,13.13
2019-03-28T05:31:27.234Z,12.78
2019-03-28T05:33:55.673Z,12.00
2019-03-28T05:36:24.148Z,10.93
2019-03-28T05:38:52.589Z,11.80
2019-03-28T05:41:21.028Z,11.48
2019-03-28T05:43:49.511Z,12.15
2019-03-28T05:46:17.955Z,11.73
2019-03-28T05:48:46.397Z,11.95
2019-03-28T05:51:14.855Z,12.20
2019-03-28T05:53:44.095Z,11.12
2019-03-28T05:56:12.801Z,11.80
2019-03-28T05:58:41.277Z,12.30
2019-03-28T06:01:09.734Z,11.40
2019-03-28T06:03:38.178Z,11.38
2019-03-28T06:06:06.655Z,10.85
2019-03-28T06:08:35.109Z,11.53
2019-03-28T06:11:03.634Z,10.93
2019-03-28T06:13:32.110Z,10.53
2019-03-28T06:16:00.552Z,11.53
2019-03-28T06:18:29.006Z,11.88
2019-03-28T06:20:59.575Z,10.50
2019-03-28T06:23:27.731Z,12.30
2019-03-28T06:28:48.164Z,11.43
2019-03-28T06:31:16.624Z,11.12
2019-03-28T06:33:45.076Z,11.70
2019-03-28T06:36:14.325Z,11.68
2019-03-28T06:38:43.075Z,11.80
2019-03-28T06:41:11.508Z,12.35
2019-03-28T06:43:42.080Z,11.38
2019-03-28T06:46:10.147Z,11.38
2019-03-28T06:48:38.597Z,11.60
2019-03-28T06:51:07.067Z,12.30
2019-03-28T06:53:35.504Z,13.05
2019-03-28T06:56:03.960Z,12.85
2019-03-28T06:58:32.441Z,12.20
2019-03-28T07:01:01.151Z,12.13
2019-03-28T07:03:29.675Z,12.18
2019-03-28T07:05:58.156Z,11.93
2019-03-28T07:08:26.616Z,11.53
2019-03-28T07:10:57.887Z,11.22
2019-03-28T07:13:25.253Z,11.45
2019-03-28T07:15:53.705Z,10.90
2019-03-28T07:18:22.145Z,10.95
2019-03-28T07:20:50.666Z,10.50
2019-03-28T07:23:19.176Z,10.00
2019-03-28T07:25:47.617Z,9.63
2019-03-28T07:28:16.091Z,10.25
2019-03-28T07:30:45.369Z,9.78
2019-03-28T07:33:14.033Z,9.78
2019-03-28T07:35:42.517Z,9.08
2019-03-28T07:38:11.028Z,9.13
2019-03-28T07:40:39.467Z,8.88
2019-03-28T07:43:27.284Z,9.33
2019-03-28T07:45:55.719Z,9.33
2019-03-28T07:48:24.155Z,9.18
2019-03-28T07:50:52.626Z,8.83
2019-03-28T07:53:21.597Z,9.30
2019-03-28T07:55:50.283Z,9.60
2019-03-28T07:58:18.761Z,8.68
2019-03-28T08:00:47.207Z,9.78
2019-03-28T08:03:15.651Z,8.83
2019-03-28T08:05:44.127Z,9.20
2019-03-28T08:08:12.635Z,9.08
2019-03-28T08:10:41.081Z,9.50
2019-03-28T08:13:09.556Z,9.50
2019-03-28T08:15:37.991Z,8.38
2019-03-28T08:18:06.500Z,8.45
2019-03-28T08:20:35.035Z,7.92
2019-03-28T08:23:03.473Z,8.35
2019-03-28T08:25:31.991Z,7.90
2019-03-28T08:28:00.465Z,7.80
2019-03-28T08:30:39.843Z,8.40
2019-03-28T08:33:09.312Z,7.75
2019-03-28T08:35:38.196Z,7.92
2019-03-28T08:38:09.717Z,8.90
2019-03-28T08:40:42.026Z,8.68
2019-03-28T08:43:10.684Z,8.15
2019-03-28T08:45:39.303Z,8.65
2019-03-28T08:48:08.117Z,8.48
2019-03-28T08:50:36.565Z,7.87
2019-03-28T08:53:05.094Z,7.90
2019-03-28T08:55:33.700Z,8.80
2019-03-28T08:58:02.156Z,8.90
2019-03-28T09:00:35.049Z,8.78
2019-03-28T09:05:29.284Z,8.58
2019-03-28T09:07:57.734Z,8.60
2019-03-28T09:10:26.220Z,8.53
2019-03-28T09:12:54.660Z,7.70
2019-03-28T09:15:23.131Z,8.38
2019-03-28T09:17:51.674Z,8.45
2019-03-28T09:20:20.178Z,8.83
2019-03-28T09:22:48.626Z,8.00
2019-03-28T09:25:17.099Z,7.87
2019-03-28T09:27:45.548Z,7.33
2019-03-28T09:30:14.820Z,7.95
2019-03-28T09:32:43.363Z,7.22
2019-03-28T09:35:13.717Z,7.33
2019-03-28T09:37:42.169Z,6.45
2019-03-28T09:40:10.991Z,6.62
2019-03-28T09:42:39.434Z,6.72
2019-03-28T09:45:08.241Z,6.72
2019-03-28T09:47:36.772Z,6.08
2019-03-28T09:50:06.971Z,6.72
2019-03-28T09:52:35.539Z,6.53
2019-03-28T09:55:05.508Z,6.67
2019-03-28T09:57:34.031Z,6.80
2019-03-28T10:00:02.551Z,6.60
2019-03-28T10:02:31.018Z,6.00
2019-03-28T10:04:59.476Z,6.53
2019-03-28T10:07:27.928Z,6.28
2019-03-28T10:09:56.711Z,6.67
2019-03-28T10:12:25.291Z,6.20
2019-03-28T10:14:53.739Z,6.42
2019-03-28T10:17:22.488Z,6.37
2019-03-28T10:19:50.932Z,6.53
2019-03-28T10:22:22.235Z,6.40
2019-03-28T10:24:49.648Z,6.85
2019-03-28T10:27:19.319Z,7.10
2019-03-28T10:29:48.015Z,7.45
2019-03-28T10:32:16.499Z,8.00
2019-03-28T10:34:45.020Z,7.67
2019-03-28T10:37:13.464Z,7.83
2019-03-28T10:39:42.008Z,9.10
2019-03-28T10:42:10.455Z,9.10
2019-03-28T10:44:38.912Z,9.00
2019-03-28T10:47:07.387Z,9.88
2019-03-28T10:49:35.832Z,10.05
2019-03-28T10:52:04.449Z,9.90
2019-03-28T10:54:32.993Z,9.70
2019-03-28T10:57:13.070Z,8.95
2019-03-28T10:59:31.606Z,9.58
2019-03-28T11:02:00.068Z,9.38
2019-03-28T11:04:28.508Z,9.48
2019-03-28T11:06:56.958Z,9.68
2019-03-28T11:09:25.492Z,9.10
2019-03-28T11:11:53.937Z,9.90
2019-03-28T11:14:22.391Z,9.10
2019-03-28T11:16:50.868Z,8.63
2019-03-28T11:19:19.317Z,7.92
2019-03-28T11:21:48.010Z,7.90
2019-03-28T11:24:16.482Z,7.58
2019-03-28T11:26:44.969Z,7.47
2019-03-28T11:29:13.411Z,8.43
2019-03-28T11:31:46.801Z,8.23
2019-03-28T11:34:12.123Z,7.08
2019-03-28T11:36:40.570Z,8.40
2019-03-28T11:39:09.187Z,7.17
2019-03-28T11:41:37.637Z,8.00
2019-03-28T11:44:06.158Z,8.13
2019-03-28T11:46:34.640Z,8.03
2019-03-28T11:49:03.085Z,8.43
2019-03-28T11:54:21.481Z,8.15
2019-03-28T11:56:49.926Z,8.18
2019-03-28T11:59:18.368Z,8.03
2019-03-28T12:01:59.413Z,8.33
2019-03-28T12:04:17.135Z,7.75
2019-03-28T12:06:48.805Z,7.70
2019-03-28T12:09:15.947Z,8.08
2019-03-28T12:11:44.458Z,7.10
2019-03-28T12:14:12.989Z,6.90
2019-03-28T12:16:41.466Z,7.87
2019-03-28T12:19:10.031Z,8.43
2019-03-28T12:21:38.538Z,8.23
2019-03-28T12:24:07.013Z,10.10
2019-03-28T12:26:35.692Z,8.15
2019-03-28T12:29:05.807Z,7.83
2019-03-28T12:31:34.607Z,7.25
2019-03-28T12:34:03.055Z,7.30
2019-03-28T12:36:31.505Z,6.62
2019-03-28T12:38:59.981Z,6.67
2019-03-28T12:41:28.434Z,7.05
2019-03-28T12:43:56.996Z,6.75
2019-03-28T12:46:25.817Z,6.90
2019-03-28T12:48:54.491Z,7.12
2019-03-28T12:51:23.018Z,6.87
2019-03-28T12:53:53.760Z,7.17
2019-03-28T12:56:22.211Z,6.78
2019-03-28T12:58:50.648Z,7.33
2019-03-28T13:01:19.125Z,8.28
2019-03-28T13:03:47.586Z,7.87
2019-03-28T13:06:16.023Z,7.80
2019-03-28T13:08:44.590Z,8.78
2019-03-28T13:11:13.041Z,8.18
2019-03-28T13:13:41.494Z,8.28
2019-03-28T13:16:10.049Z,8.18
2019-03-28T13:18:38.492Z,8.28
2019-03-28T13:21:13.379Z,8.40
2019-03-28T13:23:37.207Z,8.38
2019-03-28T13:26:05.717Z,8.78
2019-03-28T13:28:34.173Z,8.40
2019-03-28T13:31:02.678Z,9.83
2019-03-28T13:33:31.195Z,9.50
2019-03-28T13:35:59.930Z,8.30
2019-03-28T13:38:28.396Z,7.90
2019-03-28T13:40:56.851Z,9.08
2019-03-28T13:43:25.307Z,8.75
2019-03-28T13:45:53.777Z,8.65
2019-03-28T13:48:22.216Z,7.90
2019-03-28T13:50:50.656Z,8.05
2019-03-28T13:53:19.149Z,8.58
2019-03-28T13:55:47.679Z,8.50
2019-03-28T13:58:16.133Z,9.13
2019-03-28T14:00:44.619Z,9.15
2019-03-28T14:03:13.074Z,8.95
2019-03-28T14:05:41.600Z,9.13
2019-03-28T14:08:10.154Z,8.20
2019-03-28T14:10:38.595Z,9.25
2019-03-28T14:13:07.048Z,8.68
2019-03-28T14:15:35.528Z,8.95
2019-03-28T14:18:04.265Z,9.08
2019-03-28T14:20:32.714Z,8.55
2019-03-28T14:23:01.190Z,9.03
2019-03-28T14:25:29.703Z,9.25
2019-03-28T14:27:58.296Z,8.75
2019-03-28T14:30:27.510Z,9.05
2019-03-28T14:33:10.154Z,8.83
2019-03-28T14:35:26.363Z,9.05
2019-03-28T14:37:54.840Z,9.13
2019-03-28T14:40:23.431Z,9.25
2019-03-28T14:42:51.892Z,10.65
2019-03-28T14:45:20.450Z,9.73
2019-03-28T14:47:48.888Z,9.38
2019-03-28T14:50:20.424Z,9.08
2019-03-28T14:52:48.995Z,9.88
2019-03-28T14:55:17.459Z,9.48
2019-03-28T14:57:46.544Z,8.93
2019-03-28T15:00:24.073Z,10.15
2019-03-28T15:02:52.536Z,10.32
2019-03-28T15:05:21.085Z,9.95
2019-03-28T15:07:49.569Z,8.08
2019-03-28T15:10:18.024Z,9.90
2019-03-28T15:12:46.485Z,8.85
2019-03-28T15:15:15.127Z,9.95
2019-03-28T15:17:44.999Z,9.75
2019-03-28T15:20:13.768Z,9.08
2019-03-28T15:22:42.247Z,9.13
2019-03-28T15:25:10.839Z,8.98
2019-03-28T15:27:39.284Z,9.65
2019-03-28T15:30:08.696Z,9.40
2019-03-28T15:32:37.144Z,9.00
2019-03-28T15:35:06.434Z,8.90
2019-03-28T15:37:34.956Z,9.18
2019-03-28T15:40:05.528Z,8.58
2019-03-28T15:45:01.662Z,7.90
2019-03-28T15:47:30.107Z,8.45
2019-03-28T15:49:58.557Z,8.23
2019-03-28T15:52:27.627Z,8.23
2019-03-28T15:54:56.251Z,8.95
2019-03-28T15:57:24.700Z,8.60
2019-03-28T15:59:53.187Z,8.38
2019-03-28T16:02:21.708Z,8.75
2019-03-28T16:04:50.164Z,8.58
2019-03-28T16:07:18.647Z,8.28
2019-03-28T16:09:47.083Z,8.03
2019-03-28T16:12:15.524Z,7.00
2019-03-28T16:14:44.036Z,7.35
2019-03-28T16:17:12.488Z,7.85
2019-03-28T16:19:40.980Z,7.05
2019-03-28T16:22:09.477Z,6.97
2019-03-28T16:24:37.934Z,5.30
2019-03-28T16:27:06.386Z,5.50
2019-03-28T16:29:34.931Z,6.05
2019-03-28T16:32:03.386Z,6.25
2019-03-28T16:34:31.832Z,6.20
2019-03-28T16:37:00.311Z,6.20
2019-03-28T16:39:28.757Z,5.70
2019-03-28T16:41:57.201Z,5.12
2019-03-28T16:44:25.687Z,4.05
2019-03-28T16:46:54.195Z,4.05
2019-03-28T16:49:22.648Z,4.87
2019-03-28T16:51:51.760Z,4.22
2019-03-28T16:54:29.190Z,3.87
2019-03-28T16:56:51.553Z,4.28
2019-03-28T16:59:20.085Z,3.80
2019-03-28T17:01:48.618Z,4.17
2019-03-28T17:04:20.873Z,4.28
2019-03-28T17:06:47.784Z,4.45
2019-03-28T17:09:16.355Z,4.28
2019-03-28T17:11:44.803Z,4.25
2019-03-28T17:14:13.277Z,4.58
2019-03-28T17:16:42.779Z,4.25
2019-03-28T17:19:11.448Z,4.20
2019-03-28T17:21:40.054Z,4.67
2019-03-28T17:24:08.559Z,5.00
2019-03-28T17:26:37.012Z,4.80
2019-03-28T17:29:05.496Z,4.72
2019-03-28T17:31:34.157Z,5.00
2019-03-28T17:34:02.637Z,4.90
2019-03-28T17:36:31.103Z,5.55
2019-03-28T17:38:59.551Z,5.45
2019-03-28T17:41:28.065Z,5.30
2019-03-28T17:43:56.617Z,5.25
2019-03-28T17:46:25.134Z,4.75
2019-03-28T17:48:53.581Z,4.47
2019-03-28T17:51:22.057Z,4.75
2019-03-28T17:53:50.497Z,4.87
2019-03-28T17:56:19.024Z,4.97
2019-03-28T17:58:47.592Z,4.58
2019-03-28T18:01:16.455Z,4.60
2019-03-28T18:03:44.897Z,5.25
2019-03-28T18:06:13.485Z,4.95
2019-03-28T18:08:41.933Z,5.25
2019-03-28T18:11:10.409Z,5.35
2019-03-28T18:13:38.920Z,5.12
2019-03-28T18:16:07.685Z,5.95
2019-03-28T18:18:36.379Z,5.70
2019-03-28T18:21:04.856Z,6.30
2019-03-28T18:23:33.509Z,6.55
2019-03-28T18:26:02.080Z,6.95
2019-03-28T18:28:31.624Z,6.62
2019-03-28T18:31:00.721Z,9.68
2019-03-28T18:33:30.823Z,7.45
2019-03-28T18:36:00.082Z,8.27
2019-03-28T18:38:30.836Z,8.15
2019-03-28T18:40:59.680Z,8.53
2019-03-28T18:43:28.228Z,9.60
2019-03-28T18:45:56.769Z,9.40
2019-03-28T18:48:31.620Z,8.35
2019-03-28T18:50:55.591Z,8.78
2019-03-28T18:53:24.189Z,8.25
2019-03-28T18:55:52.834Z,8.60
2019-03-28T18:58:21.379Z,9.90
2019-03-28T19:00:49.990Z,11.28
2019-03-28T19:03:18.500Z,10.08
2019-03-28T19:05:48.840Z,8.43
2019-03-28T19:08:17.789Z,9.15
2019-03-28T19:10:46.400Z,12.70
2019-03-28T19:13:14.946Z,8.90
2019-03-28T19:15:43.547Z,9.30
2019-03-28T19:18:12.099Z,10.03
2019-03-28T19:20:40.670Z,9.35
2019-03-28T19:23:09.264Z,9.68
2019-03-28T19:25:37.695Z,9.85
2019-03-28T19:28:07.760Z,9.88
2019-03-28T19:30:36.734Z,10.38
2019-03-28T19:33:07.070Z,10.85
2019-03-28T19:35:36.786Z,9.93
2019-03-28T19:38:08.858Z,11.00
2019-03-28T19:40:35.828Z,11.35
2019-03-28T19:43:19.253Z,11.20
2019-03-28T19:45:36.563Z,10.78
2019-03-28T19:48:06.307Z,11.68
2019-03-28T19:50:34.963Z,11.35
2019-03-28T19:53:03.546Z,12.82
2019-03-28T19:55:31.992Z,13.00
2019-03-28T19:58:00.536Z,13.20
2019-03-28T20:00:29.364Z,13.15
2019-03-28T20:03:00.362Z,13.18
2019-03-28T20:05:28.268Z,12.58
2019-03-28T20:07:56.711Z,12.23
2019-03-28T20:10:25.227Z,16.65
2019-03-28T20:12:53.707Z,15.38
2019-03-28T20:15:22.155Z,14.50
2019-03-28T20:17:50.604Z,15.28
2019-03-28T20:20:19.212Z,15.23
2019-03-28T20:22:47.655Z,14.35
2019-03-28T20:25:16.096Z,15.38
2019-03-28T20:27:44.580Z,14.23
2019-03-28T20:30:13.329Z,13.70
2019-03-28T20:32:41.842Z,14.83
2019-03-28T20:35:11.108Z,15.18
2019-03-28T20:37:39.573Z,14.58
2019-03-28T20:40:08.653Z,14.60
2019-03-28T20:42:37.135Z,14.10
2019-03-28T20:45:07.530Z,14.53
2019-03-28T20:47:36.052Z,14.23
2019-03-28T20:50:07.686Z,15.28
2019-03-28T20:52:36.124Z,15.23
2019-03-28T20:55:06.304Z,15.45
2019-03-28T20:57:35.925Z,14.60
2019-03-28T21:00:08.544Z,16.55
2019-03-28T21:02:36.331Z,14.50
2019-03-28T21:05:06.544Z,15.60
2019-03-28T21:07:35.056Z,16.50
2019-03-28T21:10:04.279Z,17.10
2019-03-28T21:12:32.747Z,16.10
2019-03-28T21:15:01.224Z,16.48
2019-03-28T21:17:32.135Z,15.38
2019-03-28T21:20:00.009Z,15.10
2019-03-28T21:22:28.453Z,15.32
2019-03-28T21:24:57.022Z,15.43
2019-03-28T21:27:25.549Z,15.40
2019-03-28T21:29:54.005Z,15.25
2019-03-28T21:32:22.636Z,14.90
2019-03-28T21:34:55.981Z,15.28
2019-03-28T21:37:21.558Z,15.98
2019-03-28T21:39:50.021Z,16.25
2019-03-28T21:42:20.136Z,16.65
2019-03-28T21:44:48.887Z,16.27
2019-03-28T21:47:17.520Z,16.12
2019-03-28T21:49:45.991Z,15.48
2019-03-28T21:52:14.555Z,16.25
2019-03-28T21:54:43.082Z,16.60
2019-03-28T21:57:14.486Z,16.82
2019-03-28T21:59:41.820Z,16.95
2019-03-28T22:02:10.445Z,17.40
2019-03-28T22:04:38.979Z,16.90
2019-03-28T22:07:08.684Z,17.17
2019-03-28T22:09:39.570Z,17.20
2019-03-28T22:12:10.240Z,17.65
2019-03-28T22:14:39.808Z,18.23
2019-03-28T22:17:08.451Z,18.12
2019-03-28T22:19:36.912Z,17.98
2019-03-28T22:22:05.385Z,17.17
2019-03-28T22:24:33.819Z,17.70
2019-03-28T22:27:02.329Z,18.25
2019-03-28T22:29:30.861Z,18.17
2019-03-28T22:31:59.305Z,18.02
2019-03-28T22:34:27.778Z,18.62
2019-03-28T22:36:59.248Z,17.40
2019-03-28T22:39:26.671Z,18.23
2019-03-28T22:41:55.223Z,18.57
2019-03-28T22:44:24.970Z,18.77
2019-03-28T22:46:53.712Z,19.23
2019-03-28T22:49:22.353Z,19.00
2019-03-28T22:51:50.897Z,19.15
2019-03-28T22:54:19.464Z,19.02
2019-03-28T22:56:48.004Z,20.05
2019-03-28T22:59:16.520Z,20.65
2019-03-28T23:01:45.028Z,19.00
2019-03-28T23:04:19.697Z,19.67
2019-03-28T23:06:48.878Z,21.25
2019-03-28T23:09:17.451Z,18.98
2019-03-28T23:11:46.022Z,19.27
2019-03-28T23:14:14.597Z,20.32
2019-03-28T23:16:43.044Z,20.45
2019-03-28T23:19:12.122Z,18.82
2019-03-28T23:21:41.607Z,21.70
2019-03-28T23:24:10.131Z,19.65
2019-03-28T23:26:38.669Z,19.55
2019-03-28T23:29:07.116Z,18.95
2019-03-28T23:32:13.148Z,20.40
2019-03-28T23:34:41.611Z,20.15
2019-03-28T23:37:10.056Z,20.97
2019-03-28T23:39:38.996Z,21.52
2019-03-28T23:42:07.529Z,21.50
2019-03-28T23:44:42.032Z,22.40
2019-03-28T23:47:10.487Z,21.25
2019-03-28T23:49:40.474Z,21.12
2019-03-28T23:52:09.260Z,22.70
2019-03-28T23:54:37.748Z,22.42
2019-03-28T23:57:06.276Z,22.98
2019-03-28T23:59:34.729Z,23.45
